Terminal Aerodrome Forecast
Issued by NWS

Home | Current Version | Previous Version | Text Only | Print | Product List | Glossary On
Versions: 1 2 3 4 5 6 7 8 9 10 11 12 13 14 15 16 17
702
FTUS43 KABR 201734
TAFMBG
TAF
KMBG 201734Z 2018/2118 25013KT P6SM BKN150
     FM201900 30017G25KT P6SM BKN150
     FM210000 31013KT P6SM SCT070
     FM210800 33019G27KT P6SM FEW090=

USA.gov is the U.S. government's official web portal to all federal, state and local government web resources and services.